Data for 10/29/2013

Time Sea-Level Adjusted Pressure Absolute Pressure Temperature Relative Humidity Dew Point   
(mb) (inHg) (mb) (inHg) (C) (F) (%) (C) (F)
00:05 1017 30.03 847 25.01 -7.3 18.9 88 -8.9 15.9
00:10 1017 30.03 847 25.01 -7.3 18.8 89 -8.9 16
00:15 1017 30.03 846 24.98 -7.3 18.8 89 -8.9 16
00:20 1017 30.03 846 24.98 -7.3 18.8 89 -8.9 16
00:25 1017 30.03 846 24.98 -7.3 18.9 87 -9.1 15.7
00:30 1017 30.03 846 24.98 -7.2 19.1 87 -9 15.9
00:35 1017 30.03 846 24.98 -7.1 19.2 86 -9 15.7
00:40 1017 30.03 846 24.98 -7.1 19.3 85 -9.1 15.5
00:45 1017 30.03 846 24.98 -6.9 19.5 84 -9.2 15.4
00:50 1017 30.03 846 24.98 -6.9 19.6 84 -9.2 15.4
00:55 1017 30.03 846 24.98 -6.9 19.6 84 -9.1 15.6
01:00 1017 30.03 847 25.01 -6.9 19.6 85 -9 15.8
01:05 1017 30.03 847 25.01 -7 19.4 86 -9 15.8
01:10 1018 30.06 847 25.01 -7 19.4 85 -9.1 15.7
01:15 1017 30.03 847 25.01 -7.1 19.3 86 -9.1 15.7
01:20 1017 30.03 847 25.01 -7.1 19.3 86 -9.1 15.7
01:25 1017 30.03 847 25.01 -7.1 19.3 86 -9 15.8
01:30 1017 30.03 846 24.98 -7.1 19.2 86 -9 15.7
01:35 1017 30.03 846 24.98 -7.1 19.3 86 -9.1 15.7
01:40 1017 30.03 846 24.98 -7.1 19.3 86 -9.1 15.7
01:45 1017 30.03 846 24.98 -7 19.4 86 -9 15.8
01:50 1017 30.03 846 24.98 -7 19.4 85 -9.1 15.7
01:55 1017 30.03 846 24.98 -7 19.4 85 -9.1 15.6
02:00 1017 30.03 846 24.98 -6.9 19.5 85 -9.1 15.6
02:05 1017 30.03 847 25.01 -6.9 19.5 84 -9.1 15.6
02:10 1017 30.03 847 25.01 -6.9 19.6 84 -9.2 15.5
02:15 1017 30.03 847 25.01 -6.8 19.7 84 -9.2 15.5
02:20 1017 30.03 847 25.01 -6.8 19.7 83 -9.2 15.4
02:25 1017 30.03 847 25.01 -6.8 19.7 83 -9.3 15.3
02:30 1017 30.03 846 24.98 -6.8 19.7 83 -9.2 15.4
02:35 1017 30.03 846 24.98 -6.9 19.6 83 -9.2 15.4
02:40 1017 30.03 846 24.98 -6.9 19.6 84 -9.2 15.4
02:45 1017 30.03 846 24.98 -7 19.5 84 -9.2 15.4
02:50 1017 30.03 846 24.98 -7 19.5 84 -9.2 15.4
02:55 1017 30.03 846 24.98 -7 19.5 84 -9.2 15.5
03:00 1017 30.03 846 24.98 -7 19.4 84 -9.2 15.4
03:05 1017 30.03 846 24.98 -7 19.4 84 -9.2 15.4
03:10 1017 30.03 846 24.98 -7 19.4 84 -9.3 15.3
03:15 1017 30.03 846 24.98 -7 19.5 84 -9.2 15.4
03:20 1017 30.03 846 24.98 -6.9 19.5 83 -9.4 15.1
03:25 1017 30.03 846 24.98 -6.9 19.6 82 -9.5 15
03:30 1017 30.03 846 24.98 -6.8 19.7 82 -9.4 15
03:35 1017 30.03 846 24.98 -6.8 19.7 82 -9.5 14.9
03:40 1017 30.03 846 24.98 -6.8 19.7 81 -9.6 14.8
03:45 1017 30.03 846 24.98 -6.8 19.8 80 -9.6 14.8
03:50 1017 30.03 846 24.98 -6.7 19.9 80 -9.6 14.8
03:55 1017 30.03 846 24.98 -6.8 19.8 81 -9.5 14.9
04:00 1017 30.03 846 24.98 -6.8 19.8 81 -9.5 15
04:05 1016 30 846 24.98 -6.7 19.9 81 -9.5 14.9
04:10 1016 30 846 24.98 -6.7 19.9 81 -9.5 14.9
04:15 1016 30 846 24.98 -6.7 19.9 80 -9.6 14.8
04:20 1016 30 846 24.98 -6.7 20 80 -9.6 14.7
04:25 1016 30 845 24.95 -6.6 20.1 79 -9.7 14.5
04:30 1016 30 845 24.95 -6.6 20.1 79 -9.7 14.5
04:35 1016 30 845 24.95 -6.5 20.2 77 -9.9 14.2
04:40 1016 30 845 24.95 -6.5 20.3 77 -9.8 14.3
04:45 1016 30 845 24.95 -6.5 20.3 77 -10 14
04:50 1016 30 845 24.95 -6.5 20.3 77 -10 14
04:55 1016 30 845 24.95 -6.5 20.3 76 -10.1 13.9
05:00 1016 30 846 24.98 -6.5 20.4 76 -10.1 13.9
05:05 1016 30 846 24.98 -6.5 20.3 76 -10.1 13.9
05:10 1016 30 846 24.98 -6.5 20.4 76 -10 14
05:15 1016 30 846 24.98 -6.5 20.4 76 -10.1 13.9
05:20 1016 30 846 24.98 -6.4 20.4 76 -10 14.1
05:25 1016 30 845 24.95 -6.5 20.4 77 -9.9 14.1
05:30 1016 30 845 24.95 -6.5 20.4 77 -9.9 14.1
05:35 1016 30 845 24.95 -6.5 20.3 77 -9.8 14.3
05:40 1016 30 845 24.95 -6.5 20.3 78 -9.7 14.6
05:45 1016 30 845 24.95 -6.5 20.2 79 -9.7 14.6
05:50 1016 30 845 24.95 -6.6 20.2 79 -9.6 14.6
05:55 1016 30 845 24.95 -6.6 20.2 79 -9.6 14.7
06:00 1016 30 845 24.95 -6.6 20.1 79 -9.6 14.8
06:05 1016 30 845 24.95 -6.6 20.1 79 -9.6 14.7
06:10 1016 30 845 24.95 -6.6 20.2 79 -9.6 14.7
06:15 1016 30 845 24.95 -6.6 20.2 79 -9.6 14.8
06:20 1016 30 845 24.95 -6.5 20.2 79 -9.5 14.8
06:25 1016 30 845 24.95 -6.5 20.3 79 -9.6 14.8
06:30 1016 30 846 24.98 -6.5 20.3 79 -9.5 14.9
06:35 1016 30 846 24.98 -6.4 20.4 79 -9.5 14.9
06:40 1016 30 846 24.98 -6.4 20.5 79 -9.5 14.9
06:45 1016 30 846 24.98 -6.4 20.6 79 -9.5 14.9
06:50 1016 30 846 24.98 -6.3 20.6 78 -9.5 14.9
06:55 1016 30 846 24.98 -6.3 20.6 78 -9.5 14.9
07:00 1016 30 846 24.98 -6.3 20.7 82 -8.8 16.1
07:05 1016 30 846 24.98 -6.3 20.7 79 -9.3 15.3
07:10 1016 30 846 24.98 -6.3 20.7 79 -9.4 15.1
07:15 1016 30 846 24.98 -6.3 20.7 78 -9.5 14.8
07:20 1016 30 846 24.98 -6.2 20.9 83 -8.6 16.5
07:25 1016 30 846 24.98 -6.2 20.8 82 -8.8 16.1
07:30 1016 30 846 24.98 -6.2 20.8 82 -8.8 16.2
07:35 1016 30 846 24.98 -6.2 20.8 85 -8.4 16.9
07:40 1016 30 846 24.98 -6.1 21 84 -8.4 16.8
07:45 1017 30.03 846 24.98 -6.2 20.9 82 -8.8 16.2
07:50 1017 30.03 846 24.98 -6.2 20.9 82 -8.8 16.2
07:55 1017 30.03 846 24.98 -6.1 20.9 83 -8.6 16.5
08:00 1017 30.03 846 24.98 -6.1 21 82 -8.7 16.3
08:05 1017 30.03 846 24.98 -5.8 21.6 80 -8.8 16.2
08:10 1017 30.03 846 24.98 -5.8 21.5 80 -8.8 16.1
08:15 1017 30.03 846 24.98 -5.9 21.4 79 -8.9 16
08:20 1017 30.03 846 24.98 -5.8 21.6 80 -8.7 16.4
08:25 1017 30.03 846 24.98 -5.6 21.9 80 -8.6 16.6
08:30 1017 30.03 846 24.98 -5.5 22 79 -8.6 16.6
08:35 1017 30.03 846 24.98 -5.5 22 79 -8.7 16.4
08:40 1017 30.03 846 24.98 -5.5 22.1 78 -8.7 16.3
08:45 1017 30.03 846 24.98 -5.5 22.1 78 -8.7 16.3
08:50 1017 30.03 846 24.98 -5.5 22.2 78 -8.7 16.3
08:55 1017 30.03 846 24.98 -5.4 22.3 77 -8.8 16.1
09:00 1017 30.03 846 24.98 -5.2 22.6 76 -8.9 16.1
09:05 1017 30.03 846 24.98 -5.1 22.9 75 -8.8 16.2
09:10 1017 30.03 846 24.98 -5.2 22.7 76 -8.8 16.2
09:15 1016 30 846 24.98 -5.4 22.2 76 -8.9 15.9
09:20 1017 30.03 846 24.98 -5.3 22.4 76 -8.9 16
09:25 1017 30.03 846 24.98 -5.1 22.9 75 -8.9 15.9
09:30 1017 30.03 846 24.98 -4.9 23.1 74 -8.9 16
09:35 1017 30.03 846 24.98 -5 23.1 74 -8.9 16
09:40 1017 30.03 846 24.98 -5.1 22.9 75 -8.8 16.1
09:45 1016 30 846 24.98 -5.3 22.4 77 -8.8 16.2
09:50 1016 30 846 24.98 -5.2 22.7 74 -9 15.7
09:55 1016 30 846 24.98 -5.3 22.5 74 -9.2 15.4
10:00 1016 30 846 24.98 -5.4 22.2 74 -9.4 15.1
10:05 1016 30 845 24.95 -5.2 22.7 73 -9.4 15.2
10:10 1016 30 845 24.95 -4.7 23.5 70 -9.4 15.1
10:15 1016 30 845 24.95 -4.2 24.5 69 -9.1 15.6
10:20 1016 30 845 24.95 -4 24.8 68 -9 15.8
10:25 1016 30 845 24.95 -3.5 25.8 67 -8.8 16.2
10:30 1016 30 845 24.95 -3.3 26 66 -8.9 16
10:35 1016 30 845 24.95 -3.1 26.4 65 -8.8 16.2
10:40 1016 30 845 24.95 -2.9 26.7 66 -8.5 16.7
10:45 1016 30 845 24.95 -3.2 26.3 67 -8.4 16.9
10:50 1016 30 845 24.95 -3.9 25 69 -8.8 16.2
10:55 1016 30 845 24.95 -4 24.7 69 -8.9 15.9
11:00 1016 30 845 24.95 -3.1 26.3 64 -9 15.8
11:05 1016 30 845 24.95 -3 26.7 66 -8.5 16.7
11:10 1016 30 845 24.95 -2.7 27.2 64 -8.5 16.6
11:15 1016 30 845 24.95 -2.1 28.1 59 -9.2 15.5
11:20 1016 30 845 24.95 -1.4 29.5 59 -8.4 16.9
11:25 1016 30 845 24.95 -1.3 29.7 56 -8.9 16.1
11:30 1016 30 845 24.95 -1.9 28.6 63 -8.1 17.5
11:35 1016 30 845 24.95 -1.9 28.5 60 -8.7 16.4
11:40 1016 30 845 24.95 -1.3 29.7 58 -8.5 16.7
11:45 1016 30 845 24.95 -1.2 29.9 60 -8 17.5
11:50 1016 30 845 24.95 -1.2 29.9 59 -8.3 17
11:55 1016 30 845 24.95 -1.9 28.5 59 -8.9 16
12:00 1016 30 845 24.95 -1.2 29.8 56 -8.8 16.1
12:05 1015 29.97 845 24.95 -0.8 30.6 58 -8.1 17.3
12:10 1015 29.97 845 24.95 -0.8 30.5 59 -7.9 17.8
12:15 1015 29.97 845 24.95 -0.2 31.6 55 -8.3 17.1
12:20 1015 29.97 845 24.95 -0.4 31.3 58 -7.7 18.1
12:25 1015 29.97 845 24.95 -1.4 29.5 60 -8.1 17.4
12:30 1015 29.97 844 24.92 -1.9 28.6 61 -8.3 17
12:35 1015 29.97 844 24.92 -1 30.1 57 -8.5 16.7
12:40 1015 29.97 844 24.92 -0.4 31.3 55 -8.3 17.1
12:45 1015 29.97 844 24.92 -0.3 31.4 57 -7.8 17.9
12:50 1015 29.97 844 24.92 -0.2 31.6 54 -8.5 16.7
12:55 1015 29.97 844 24.92 0.1 32.1 55 -8 17.6
13:00 1015 29.97 844 24.92 0.4 32.7 53 -8.1 17.3
13:05 1015 29.97 844 24.92 0.7 33.2 52 -8 17.6
13:10 1015 29.97 844 24.92 -0.1 31.8 60 -6.9 19.5
13:15 1015 29.97 844 24.92 -0.8 30.5 60 -7.7 18.2
13:20 1015 29.97 844 24.92 -1 30.3 58 -8.3 17
13:25 1015 29.97 844 24.92 0.1 32.1 54 -8.1 17.5
13:30 1014 29.94 844 24.92 0.4 32.8 54 -7.9 17.8
13:35 1014 29.94 844 24.92 -0.5 31.1 58 -7.7 18.2
13:40 1014 29.94 844 24.92 -1 30.1 59 -8 17.6
13:45 1014 29.94 844 24.92 -0.4 31.2 55 -8.3 17
13:50 1014 29.94 843 24.89 0.9 33.5 51 -8.1 17.4
13:55 1014 29.94 843 24.89 0.7 33.3 54 -7.5 18.4
14:00 1014 29.94 843 24.89 0.2 32.4 56 -7.6 18.3
14:05 1014 29.94 843 24.89 -0.3 31.5 58 -7.5 18.5
14:10 1014 29.94 843 24.89 -0.1 31.8 59 -7.2 19
14:15 1014 29.94 843 24.89 0.2 32.4 55 -7.8 18
14:20 1014 29.94 843 24.89 0.7 33.3 56 -7 19.4
14:25 1014 29.94 843 24.89 -0.1 31.8 58 -7.5 18.5
14:30 1014 29.94 843 24.89 -0.4 31.3 60 -7.3 18.8
14:35 1014 29.94 843 24.89 -0.4 31.2 58 -7.7 18.1
14:40 1014 29.94 843 24.89 0.8 33.4 53 -7.8 18
14:45 1014 29.94 843 24.89 1.8 35.2 51 -7.2 19
14:50 1014 29.94 843 24.89 1.2 34.1 53 -7.3 18.8
14:55 1014 29.94 843 24.89 1.3 34.4 52 -7.4 18.6
15:00 1014 29.94 843 24.89 1.8 35.3 50 -7.4 18.6
15:05 1014 29.94 843 24.89 2.1 35.8 50 -7.4 18.7
15:10 1014 29.94 843 24.89 1.9 35.3 51 -7.2 19
15:15 1014 29.94 843 24.89 1.9 35.4 51 -7.3 18.9
15:20 1014 29.94 843 24.89 1.9 35.5 50 -7.3 18.9
15:25 1014 29.94 843 24.89 1.9 35.4 50 -7.4 18.7
15:30 1014 29.94 843 24.89 2 35.6 51 -7 19.4
15:35 1014 29.94 843 24.89 1.7 35.1 52 -7.2 19
15:40 1014 29.94 843 24.89 1.7 35.1 51 -7.4 18.6
15:45 1014 29.94 843 24.89 2.1 35.8 51 -7.1 19.2
15:50 1014 29.94 843 24.89 2.1 35.8 51 -7.1 19.2
15:55 1014 29.94 843 24.89 2 35.6 51 -7.2 19
16:00 1014 29.94 843 24.89 1.9 35.4 52 -7 19.4
16:05 1014 29.94 843 24.89 1.5 34.6 53 -7.1 19.3
16:10 1014 29.94 843 24.89 1.7 35 51 -7.4 18.7
16:15 1014 29.94 843 24.89 1.8 35.2 52 -7.1 19.2
16:20 1014 29.94 843 24.89 1.8 35.3 51 -7.2 19
16:25 1014 29.94 843 24.89 2 35.6 51 -7.1 19.2
16:30 1014 29.94 843 24.89 1.7 35.1 52 -7 19.4
16:35 1014 29.94 843 24.89 1.7 35.1 52 -7.2 19
16:40 1014 29.94 843 24.89 1.5 34.8 53 -7.1 19.3
16:45 1014 29.94 843 24.89 1.4 34.6 53 -7.1 19.2
16:50 1014 29.94 843 24.89 1.3 34.4 53 -7.1 19.2
16:55 1014 29.94 843 24.89 1.2 34.2 54 -7 19.5
17:00 1014 29.94 843 24.89 1 33.8 55 -6.9 19.5
17:05 1014 29.94 843 24.89 0.7 33.3 57 -6.9 19.6
17:10 1014 29.94 843 24.89 0.4 32.7 58 -6.8 19.7
17:15 1014 29.94 843 24.89 -0 32 60 -7 19.5
17:20 1014 29.94 843 24.89 -0.2 31.7 61 -6.8 19.7
17:25 1014 29.94 843 24.89 -0.5 31.2 62 -7 19.5
17:30 1014 29.94 843 24.89 -0.5 31.2 61 -7 19.4
17:35 1014 29.94 843 24.89 -0.6 31 62 -7 19.5
17:40 1014 29.94 843 24.89 -0.7 30.7 63 -6.9 19.5
17:45 1014 29.94 843 24.89 -0.9 30.5 64 -6.8 19.7
17:50 1014 29.94 843 24.89 -0.9 30.4 64 -6.9 19.5
17:55 1014 29.94 843 24.89 -0.8 30.5 67 -6.2 20.9
18:00 1014 29.94 843 24.89 -0.9 30.3 66 -6.5 20.4
18:05 1014 29.94 843 24.89 -1.2 29.9 65 -6.9 19.6
18:10 1014 29.94 843 24.89 -1.3 29.6 66 -6.9 19.6
18:15 1014 29.94 843 24.89 -1.4 29.5 67 -6.8 19.7
18:20 1014 29.94 843 24.89 -1.5 29.3 67 -6.9 19.5
18:25 1014 29.94 843 24.89 -1.6 29.1 67 -6.9 19.6
18:30 1014 29.94 843 24.89 -1.8 28.7 69 -6.8 19.7
18:35 1014 29.94 843 24.89 -1.9 28.7 68 -6.9 19.5
18:40 1014 29.94 843 24.89 -1.9 28.6 68 -6.9 19.5
18:45 1014 29.94 843 24.89 -2 28.5 69 -7 19.4
18:50 1014 29.94 843 24.89 -2 28.4 69 -6.9 19.6
18:55 1014 29.94 843 24.89 -2.1 28.2 70 -6.9 19.6
19:00 1014 29.94 843 24.89 -2.2 28.1 70 -6.9 19.5
19:05 1014 29.94 843 24.89 -2.1 28.1 69 -7.1 19.2
19:10 1014 29.94 843 24.89 -2 28.4 69 -6.9 19.5
19:15 1014 29.94 843 24.89 -1.9 28.5 68 -7 19.4
19:20 1014 29.94 843 24.89 -2 28.4 69 -6.9 19.6
19:25 1014 29.94 843 24.89 -2.2 28 70 -7 19.4
19:30 1014 29.94 843 24.89 -2.3 27.9 70 -7 19.4
19:35 1014 29.94 843 24.89 -2.2 28.1 69 -7.1 19.2
19:40 1014 29.94 843 24.89 -2.1 28.2 70 -6.9 19.6
19:45 1014 29.94 843 24.89 -2.2 28 70 -6.9 19.5
19:50 1014 29.94 843 24.89 -2.5 27.6 71 -7 19.3
19:55 1014 29.94 843 24.89 -2.5 27.4 72 -7 19.4
20:00 1014 29.94 843 24.89 -2.6 27.2 72 -6.9 19.5
20:05 1014 29.94 843 24.89 -2.7 27.1 73 -6.8 19.7
20:10 1014 29.94 843 24.89 -2.7 27.2 73 -6.9 19.6
20:15 1014 29.94 843 24.89 -2.6 27.4 73 -6.8 19.7
20:20 1014 29.94 843 24.89 -2.6 27.3 73 -6.8 19.7
20:25 1014 29.94 843 24.89 -2.5 27.4 72 -6.9 19.6
20:30 1014 29.94 843 24.89 -2.4 27.7 73 -6.7 20
20:35 1014 29.94 843 24.89 -2.5 27.5 73 -6.7 19.9
20:40 1014 29.94 843 24.89 -2.5 27.6 72 -6.8 19.8
20:45 1014 29.94 843 24.89 -2.7 27.1 74 -6.8 19.8
20:50 1014 29.94 843 24.89 -2.7 27.1 73 -6.8 19.7
20:55 1014 29.94 843 24.89 -2.5 27.4 73 -6.7 19.9
21:00 1014 29.94 843 24.89 -2.4 27.6 72 -6.8 19.8
21:05 1014 29.94 843 24.89 -2.3 27.9 72 -6.7 20
21:10 1014 29.94 843 24.89 -2.3 27.9 72 -6.6 20
21:15 1014 29.94 843 24.89 -2.3 27.9 73 -6.5 20.4
21:20 1014 29.94 843 24.89 -2.2 28 73 -6.4 20.5
21:25 1014 29.94 843 24.89 -2.2 28 73 -6.4 20.5
21:30 1014 29.94 843 24.89 -2.2 28 73 -6.4 20.5
21:35 1014 29.94 843 24.89 -2.2 28 74 -6.3 20.6
21:40 1014 29.94 843 24.89 -2.2 28.1 72 -6.5 20.3
21:45 1014 29.94 843 24.89 -2.2 28.1 75 -6.1 21
21:50 1014 29.94 843 24.89 -2.4 27.7 76 -6 21.2
21:55 1014 29.94 843 24.89 -2.4 27.7 76 -6.1 21
22:00 1014 29.94 843 24.89 -2.3 27.9 75 -6.1 21.1
22:05 1014 29.94 843 24.89 -2.1 28.2 72 -6.4 20.4
22:10 1014 29.94 843 24.89 -2 28.4 72 -6.4 20.4
22:15 1014 29.94 843 24.89 -1.9 28.5 72 -6.3 20.6
22:20 1014 29.94 843 24.89 -1.9 28.6 71 -6.5 20.3
22:25 1014 29.94 843 24.89 -1.8 28.8 70 -6.5 20.4
22:30 1014 29.94 843 24.89 -1.8 28.8 71 -6.3 20.6
22:35 1014 29.94 843 24.89 -1.8 28.8 71 -6.4 20.5
22:40 1014 29.94 843 24.89 -1.8 28.7 71 -6.4 20.6
22:45 1014 29.94 843 24.89 -1.9 28.6 73 -6.1 21
22:50 1014 29.94 843 24.89 -2 28.4 75 -5.9 21.3
22:55 1014 29.94 843 24.89 -2.2 28 77 -5.8 21.6
23:00 1014 29.94 843 24.89 -2.5 27.4 79 -5.8 21.6
23:05 1014 29.94 843 24.89 -2.8 27 79 -5.9 21.4
23:10 1014 29.94 843 24.89 -2.8 27 80 -5.8 21.5
23:15 1013 29.91 843 24.89 -2.7 27.1 79 -5.9 21.4
23:20 1013 29.91 843 24.89 -2.6 27.3 78 -6 21.2
23:25 1013 29.91 843 24.89 -2.4 27.7 77 -6 21.2
23:30 1013 29.91 843 24.89 -2.4 27.7 76 -6 21.2
23:35 1013 29.91 843 24.89 -2.7 27.1 78 -6.1 21
23:40 1013 29.91 842 24.86 -3 26.6 78 -6.3 20.7
23:45 1013 29.91 842 24.86 -3.1 26.5 78 -6.4 20.5
23:50 1013 29.91 842 24.86 -3 26.6 78 -6.4 20.5
23:55 1013 29.91 842 24.86 -3.1 26.5 79 -6.2 20.8
24:00 1013 29.91 842 24.86 -3 26.6 79 -6.2 20.8